Aérodrome :
LOGIN :

S'inscrire | Disclaimer

   EN    FR    IT 

 










Légende :    VFR   VFR Marginal   IFR   IFR Intensif   IFR Très Intensif
Visi : 
Plafond : 
>= 8 km
>= 3000ft
5 à 8 km
1000 à 3000 ft
1500m à 5 km
500 à 1000 ft
800 à 1500m
200 à 500 ft
< 800m
< 200 ft
Symboles :   Orages  Brouillard  Fortes neiges  Fortes précipitations  Vent > 20 kt
SIGMETs :   Divers  Orages  Givrage  Turbulence  Onde Orograph.  Cendres Volcan.







- Altitude de l'aérodrome : 82 ft
- Code IATA : QIE
- Voir les cartes d'approche


LFMI - Istres

DERNIER METAR :
  • 220400Z AUTO 36003KT CAVOK 16/16 Q1012

METARs EXPIRÉS :
  • 220330Z AUTO 29003KT 9999 FEW039 BKN092 BKN110 16/16 Q1011
  • 220300Z AUTO VRB01KT CAVOK 16/16 Q1012
  • 220230Z AUTO 22004KT CAVOK 16/16 Q1012
  • 220200Z AUTO 18003KT 140V220 9999 FEW007/// OVC096/// ///TCU 16/16 Q1012
  • 220130Z AUTO VRB02KT 9000 -RA ///TCU 16/16 Q1012

TAF TAF LFMI
Valide du 21 à 15h jusqu'au 22 à 15h UTC


211400Z 2115/2215 VRB03KT CAVOK
TEMPO 2115/2120 18009KT 4000 SHRA SCT020TCU BKN030
PROB40
TEMPO 2115/2120 VRB15G25KT 2000 TSRA BKN015CB
TEMPO 2120/2204 SHRA SCT025TCU
Pas de NOTAMs connus pour ce terrain.



MET'MAP, la Météo Aéronautique d'un coup d'oeil ! - Copyright ORBIFLY Décembre 2007 - Disclaimer

ORBIFLY MET'MAP TEAM :

Programmation & Développement : Alexandra Zaïnal
Conception & Développement : Baudouin d'Aumeries
Co-Programmation & Développement : Marc-Olivier Méhu
Soutien technique & logistique : Manuel Goepfert

Contact : metmap@orbifly.com




SOURCES & CREDITS :

   NOAA